Weather at Gimo gräsfält

Public forecast

Using degrees Celsius for public forecast. Weather courtesy of forecast.io.

Closest aviation weather report (METAR) to Gimo gräsfält

Report is more than 6 hours old.

Closest report is Ärna Air Base, 24.7 nm (45.8 km) SW.

2024/06/24 06:20 (retrieved 1 day ago)

ESCM 240620Z 35012KT CAVOK 18/14 Q1016

Closest aviation forecast (TAF) to Gimo gräsfält

Forecast is more than 12 hours old.

Closest forecast is Stockholm-Arlanda Airport, 32.7 nm (60.6 km) SSW.

2024/06/24 06:00 (retrieved 1 day ago)

TAF ESSA 250530Z 2506/2606 19006KT CAVOK